Impacts TAF Board
For situational awareness. Not to be used for flight planning purposes.
IDs:

KMSP - Minneapolis-St Paul, MN, US

Issued at 0538 UTC 23 Feb 2019
Updated at 0715 UTC 23 Feb 2019
Potential Impact None Slight Moderate High
Time0653Z 23/08Z 23/09Z 23/10Z 23/11Z 23/12Z 23/13Z 23/14Z 23/15Z 23/16Z 23/17Z 23/18Z 23/19Z 23/20Z>>
Type OBS PRVL PRVL PRVL PRVL PRVL
  [TEMP]  
PRVL
  [TEMP]  
PRVL
  [TEMP]  
PRVL
  [TEMP]  
PRVL PRVL PRVL PRVL PRVL
VIS 9 2 2 2 2 5
  [5]  
5
  [5]  
5
  [5]  
5
  [5]  
>6 >6 >6 >6 >6
CIG 60 20 20 20 20 9
  [7]  
9
  [7]  
9
  [7]  
9
  [7]  
8 8 8 8 8
Cover OVC OVC OVC OVC OVC OVC
  [OVC]  
OVC
  [OVC]  
OVC
  [OVC]  
OVC
  [OVC]  
OVC OVC OVC OVC OVC
FltCat VFR IFR IFR IFR IFR IFR
  [IFR]  
IFR
  [IFR]  
IFR
  [IFR]  
IFR
  [IFR]  
IFR IFR IFR IFR IFR
WX -- -SN -SN -SN -SN -SN BR
  [-FZDZ SN BR]  
-SN BR
  [-FZDZ SN BR]  
-SN BR
  [-FZDZ SN BR]  
-SN BR
  [-FZDZ SN BR]  
-- -- -- -- --
WDir 120 100 100 100 100 120
[120]
120
[120]
120
[120]
120
[120]
80 80 80 80 80
WSpd 6 8 8 8 8 7
  [7]  
7
  [7]  
7
  [7]  
7
  [7]  
7 7 7 7 7
WGst -- -- -- -- -- --
  [--]  
--
  [--]  
--
  [--]  
--
  [--]  
-- -- -- -- --
Raw TAF
KMSP 230538Z 2306/2412 10008KT P6SM -SN BKN080 OVC090
  FM230700 10008KT 3SM -SN SCT020 OVC035
  FM230730 10008KT 2SM -SN SCT015 OVC020
  FM231200 12007KT 5SM -SN BR OVC009
  TEMPO 2312/2316 5SM -FZDZSN BR OVC007
  FM231600 08007KT P6SM OVC008
  FM240000 35014G21KT 3/4SM -SN BR OVC012
  FM240800 32020G30KT 2SM BLSN OVC015


Raw METAR
KMSP 230653Z 12006KT 9SM OVC060 M02/M07 A3013 RMK AO2 SLP217 T10221072 PNO $
KMSP 230553Z COR 09008KT 8SM FEW045 SCT055 OVC070 M02/M08 A3013 RMK AO2 SLP216 4/015 T10221083 11028 21033 400221122 58037 PNO $
KMSP 230545Z 08009KT 7SM FEW045 BKN060 OVC070 M03/M08 A3013 RMK AO2 PRESFR T10281083 PNO $
KMSP 230453Z 10008KT 8SM BKN075 OVC090 M03/M08 A3019 RMK AO2 SLP238 T10331083 PNO $

METAR Board
Radar Display
Forecast Discussion
For situational awareness. Not to be used for flight planning purposes.